Time;durP1;ratioP1;P1;durP2;ratioP2;P2;SDS_P1;SDS_P2;PMS_P1;PMS_P2;Temp;Humidity;BMP_temperature;BMP_pressure;BME280_temperature;BME280_humidity;BME280_pressure;Samples;Min_cycle;Max_cycle;Signal;HPM_P1;HPM_P2
2020/12/21 00:01:19;;;;;;;31.75;23.17;;;;;;;12.86;73.06;102213.84;5029850;28;20046;-47
2020/12/21 00:03:44;;;;;;;26.10;19.60;;;;;;;12.87;73.21;102218.22;5029249;28;20041;-45
2020/12/21 00:06:16;;;;;;;22.50;19.35;;;;;;;12.89;73.25;102220.69;5024641;28;20043;-44
2020/12/21 00:08:42;;;;;;;31.52;22.38;;;;;;;12.93;73.61;102219.19;5028089;28;20072;-47
2020/12/21 00:11:08;;;;;;;32.45;20.98;;;;;;;12.89;74.12;102223.38;5035991;28;20083;-46
2020/12/21 00:13:42;;;;;;;29.98;21.73;;;;;;;12.98;73.44;102222.06;5029450;28;20037;-48
2020/12/21 00:16:11;;;;;;;20.33;18.08;;;;;;;12.85;73.78;102223.00;5028409;28;20048;-45
2020/12/21 00:18:38;;;;;;;20.63;16.30;;;;;;;12.96;73.64;102216.88;5029549;28;20044;-46
2020/12/21 00:21:04;;;;;;;21.73;16.98;;;;;;;12.90;74.13;102200.78;5029572;28;20045;-47
2020/12/21 00:23:30;;;;;;;21.50;15.13;;;;;;;12.81;74.95;102205.59;5028812;28;20461;-47
2020/12/21 00:25:55;;;;;;;16.17;13.93;;;;;;;12.75;75.04;102206.50;5029543;28;20038;-45
2020/12/21 00:28:21;;;;;;;15.60;13.30;;;;;;;12.83;74.48;102207.06;5028974;28;20048;-44
2020/12/21 00:30:47;;;;;;;16.77;12.70;;;;;;;12.77;74.26;102204.41;5030006;28;20037;-47
2020/12/21 00:33:13;;;;;;;15.77;10.43;;;;;;;12.75;74.40;102215.38;5028693;28;20031;-45
2020/12/21 00:35:41;;;;;;;9.57;8.40;;;;;;;12.74;74.25;102210.22;5029463;28;20057;-46
2020/12/21 00:38:07;;;;;;;15.45;13.10;;;;;;;12.86;73.85;102224.63;5028855;28;20037;-45
2020/12/21 00:40:32;;;;;;;14.73;12.35;;;;;;;12.88;73.57;102219.03;5029341;28;20037;-45
2020/12/21 00:42:58;;;;;;;14.00;11.40;;;;;;;12.77;74.31;102216.00;5032296;28;20399;-45
2020/12/21 00:45:23;;;;;;;14.13;12.73;;;;;;;12.89;74.08;102231.44;5036029;28;20040;-45
2020/12/21 00:47:49;;;;;;;23.67;17.35;;;;;;;12.83;74.29;102235.81;5032031;28;20030;-46
2020/12/21 00:50:14;;;;;;;22.30;17.50;;;;;;;12.84;73.52;102224.84;5031608;28;20446;-48
2020/12/21 00:52:39;;;;;;;23.33;17.58;;;;;;;12.86;73.93;102228.13;5032063;28;20064;-48
2020/12/21 00:55:05;;;;;;;19.73;15.95;;;;;;;12.89;74.21;102224.19;5031434;28;20045;-44
2020/12/21 00:57:32;;;;;;;25.45;16.95;;;;;;;12.89;73.69;102228.75;5031740;28;20033;-47
2020/12/21 00:59:58;;;;;;;25.98;18.88;;;;;;;12.86;74.21;102230.00;5031856;28;20041;-45
2020/12/21 01:02:23;;;;;;;27.15;18.67;;;;;;;12.80;74.32;102220.13;5031253;28;20033;-45
2020/12/21 01:04:49;;;;;;;29.65;18.55;;;;;;;12.67;74.93;102231.78;5031399;28;20088;-45
2020/12/21 01:07:14;;;;;;;23.75;17.60;;;;;;;12.59;74.24;102237.44;5014296;28;20043;-45
2020/12/21 01:09:40;;;;;;;28.98;23.48;;;;;;;12.55;74.89;102238.91;5031926;28;20025;-47
2020/12/21 01:12:05;;;;;;;22.30;19.15;;;;;;;12.45;75.16;102240.19;5031323;28;20092;-44
2020/12/21 01:14:31;;;;;;;30.83;18.85;;;;;;;12.37;75.29;102243.13;5031800;28;20072;-44
2020/12/21 01:16:56;;;;;;;26.52;20.05;;;;;;;12.38;74.98;102238.59;5030296;28;20206;-44
2020/12/21 01:19:21;;;;;;;29.38;19.40;;;;;;;12.41;74.59;102239.00;5031764;28;20041;-44
2020/12/21 01:21:47;;;;;;;25.67;18.92;;;;;;;12.37;75.03;102236.94;5031490;28;20041;-47
2020/12/21 01:24:12;;;;;;;17.17;15.38;;;;;;;12.39;74.67;102245.59;5031401;28;20030;-43
2020/12/21 01:26:38;;;;;;;22.27;16.48;;;;;;;12.39;74.93;102248.31;5031466;28;20483;-45
2020/12/21 01:29:03;;;;;;;24.42;18.70;;;;;;;12.34;74.84;102246.28;5031494;28;20064;-45
2020/12/21 01:31:30;;;;;;;19.73;16.50;;;;;;;12.34;74.82;102248.13;5031723;28;20034;-44
2020/12/21 01:33:55;;;;;;;28.17;16.95;;;;;;;12.35;74.79;102242.53;5031101;28;20045;-45
2020/12/21 01:36:21;;;;;;;16.40;14.63;;;;;;;12.41;74.28;102247.06;5031628;28;20032;-44
2020/12/21 01:38:47;;;;;;;16.90;13.70;;;;;;;12.49;73.61;102236.03;5030405;28;20053;-45
2020/12/21 01:41:13;;;;;;;12.90;11.32;;;;;;;12.41;73.79;102238.16;5031265;28;20080;-45
2020/12/21 01:43:38;;;;;;;16.25;10.65;;;;;;;12.29;73.90;102238.03;5031516;28;20042;-46
2020/12/21 01:46:12;;;;;;;9.75;8.75;;;;;;;12.15;74.06;102255.22;5031034;28;20033;-44
2020/12/21 01:48:38;;;;;;;10.50;8.32;;;;;;;12.14;74.52;102258.97;5031338;28;20476;-44
2020/12/21 01:51:07;;;;;;;8.55;7.72;;;;;;;12.07;74.33;102254.44;5028151;28;20456;-45
2020/12/21 01:53:36;;;;;;;9.48;6.82;;;;;;;12.03;74.96;102253.22;5028371;28;20044;-50
2020/12/21 01:56:04;;;;;;;11.52;5.05;;;;;;;12.05;75.00;102251.13;5031089;28;20033;-50
2020/12/21 01:58:30;;;;;;;8.80;5.65;;;;;;;12.03;74.97;102247.84;5030435;28;20048;-50
2020/12/21 02:00:58;;;;;;;4.88;3.88;;;;;;;12.01;74.72;102252.59;5030532;28;20057;-48
2020/12/21 02:03:23;;;;;;;6.00;5.32;;;;;;;12.19;74.58;102257.28;5030815;28;20037;-44
2020/12/21 02:05:49;;;;;;;5.43;4.40;;;;;;;12.30;74.06;102255.78;5028056;28;20387;-45
2020/12/21 02:08:14;;;;;;;5.18;4.68;;;;;;;12.28;73.88;102256.00;5034683;28;20060;-44
2020/12/21 02:10:40;;;;;;;7.07;5.18;;;;;;;12.21;74.12;102265.97;5034751;28;20033;-44
2020/12/21 02:13:05;;;;;;;5.85;3.88;;;;;;;12.18;73.69;102265.56;5034236;28;20034;-44
2020/12/21 02:15:30;;;;;;;5.30;4.50;;;;;;;12.14;74.15;102270.53;5034147;28;20034;-47
2020/12/21 02:17:56;;;;;;;4.65;3.65;;;;;;;12.00;74.30;102269.75;5034530;28;20140;-45
2020/12/21 02:20:29;;;;;;;5.05;4.32;;;;;;;11.91;74.69;102274.53;5034417;28;20787;-44
2020/12/21 02:22:55;;;;;;;5.97;4.55;;;;;;;12.01;74.45;102282.16;5034087;28;20036;-45
2020/12/21 02:25:20;;;;;;;13.23;8.65;;;;;;;12.12;73.74;102288.75;5034290;28;20034;-44
2020/12/21 02:27:46;;;;;;;18.42;14.13;;;;;;;12.12;73.97;102296.81;5034477;28;20029;-45
2020/12/21 02:30:11;;;;;;;18.15;16.05;;;;;;;11.99;74.27;102296.84;5034607;28;20044;-44
2020/12/21 02:32:37;;;;;;;18.63;12.07;;;;;;;11.98;74.22;102297.91;5034170;28;20098;-44
2020/12/21 02:35:03;;;;;;;15.00;10.60;;;;;;;11.98;74.10;102289.84;5033741;28;20054;-48
2020/12/21 02:37:29;;;;;;;10.57;8.57;;;;;;;11.98;74.01;102282.59;5033966;28;20030;-45
2020/12/21 02:39:54;;;;;;;10.52;7.60;;;;;;;11.99;73.46;102278.03;5033966;28;20029;-45
2020/12/21 02:42:20;;;;;;;6.63;5.93;;;;;;;11.94;73.21;102275.16;5033911;28;20483;-44
2020/12/21 02:44:45;;;;;;;6.75;4.60;;;;;;;11.86;73.76;102263.56;5033907;28;20078;-46
2020/12/21 02:47:10;;;;;;;5.63;4.80;;;;;;;11.76;73.62;102268.53;5033546;28;20038;-46
2020/12/21 02:49:36;;;;;;;20.98;8.05;;;;;;;11.80;74.06;102268.94;5033903;28;20033;-45
2020/12/21 02:52:01;;;;;;;10.10;7.13;;;;;;;11.76;73.79;102267.72;5033426;28;20033;-47
2020/12/21 02:54:27;;;;;;;11.30;5.85;;;;;;;11.69;73.70;102262.34;5033873;28;20087;-45
2020/12/21 02:56:53;;;;;;;10.90;5.78;;;;;;;11.63;74.00;102264.03;5028282;28;20039;-46
2020/12/21 02:59:19;;;;;;;7.35;4.90;;;;;;;11.52;74.51;102259.28;5021033;28;20064;-45
2020/12/21 03:01:45;;;;;;;7.15;5.90;;;;;;;11.61;74.67;102265.28;5034146;28;20131;-45
2020/12/21 03:04:11;;;;;;;6.70;4.68;;;;;;;11.68;74.09;102269.59;5034042;28;20048;-48
2020/12/21 03:06:37;;;;;;;8.73;6.63;;;;;;;11.62;74.62;102264.22;5034058;28;20108;-48
2020/12/21 03:09:03;;;;;;;6.45;5.10;;;;;;;11.58;74.66;102269.19;5033975;28;20132;-49
2020/12/21 03:11:28;;;;;;;6.53;4.72;;;;;;;11.55;74.65;102274.97;5034026;28;20498;-46
2020/12/21 03:13:54;;;;;;;10.10;5.43;;;;;;;11.62;74.53;102273.09;5033642;28;20097;-45
2020/12/21 03:16:19;;;;;;;6.40;4.28;;;;;;;11.73;73.93;102274.34;5033908;28;20420;-44
2020/12/21 03:18:45;;;;;;;10.85;4.68;;;;;;;11.85;73.54;102266.44;5033375;28;20033;-45
2020/12/21 03:21:10;;;;;;;5.47;2.92;;;;;;;11.90;73.58;102270.22;5033607;28;20435;-45
2020/12/21 03:23:36;;;;;;;4.97;3.60;;;;;;;11.69;74.00;102267.72;5033235;28;20471;-44
2020/12/21 03:26:03;;;;;;;5.13;3.90;;;;;;;11.61;74.10;102267.97;5033243;28;20065;-46
2020/12/21 03:28:28;;;;;;;4.97;3.92;;;;;;;11.64;73.99;102268.38;5033241;28;20045;-48
2020/12/21 03:30:54;;;;;;;5.32;4.82;;;;;;;11.60;73.82;102269.81;5033170;28;20041;-45
2020/12/21 03:33:19;;;;;;;6.53;3.63;;;;;;;11.63;73.87;102266.72;5033275;28;20034;-46
2020/12/21 03:35:45;;;;;;;4.55;3.60;;;;;;;11.54;73.85;102263.41;5033340;28;20115;-46
2020/12/21 03:38:11;;;;;;;5.32;3.67;;;;;;;11.58;73.86;102265.69;5032914;28;20073;-44
2020/12/21 03:40:36;;;;;;;8.75;3.28;;;;;;;11.49;74.09;102262.41;5032989;28;20030;-44
2020/12/21 03:43:02;;;;;;;3.13;2.38;;;;;;;11.54;73.68;102255.34;5031050;28;20100;-48
2020/12/21 03:45:27;;;;;;;6.25;2.72;;;;;;;11.52;73.93;102252.06;5032522;28;20135;-45
2020/12/21 03:47:52;;;;;;;4.40;2.13;;;;;;;11.46;73.91;102246.69;5030946;28;20037;-46
2020/12/21 03:50:18;;;;;;;5.13;4.00;;;;;;;11.54;73.67;102251.84;5033148;28;20467;-48
2020/12/21 03:52:44;;;;;;;6.85;3.78;;;;;;;11.53;73.63;102260.94;5032577;28;20455;-44
2020/12/21 03:55:10;;;;;;;7.78;4.10;;;;;;;11.57;73.36;102264.03;5032031;28;20446;-46
2020/12/21 03:57:35;;;;;;;5.07;3.85;;;;;;;11.56;72.92;102275.81;5029339;28;20116;-44
2020/12/21 04:00:00;;;;;;;3.10;2.28;;;;;;;11.52;72.74;102272.72;5032826;28;20041;-44
2020/12/21 04:02:26;;;;;;;3.80;3.08;;;;;;;11.35;73.46;102275.81;5032896;28;20048;-44
2020/12/21 04:04:51;;;;;;;4.30;2.67;;;;;;;11.35;73.46;102266.94;5032798;28;20072;-46
2020/12/21 04:07:17;;;;;;;2.25;1.77;;;;;;;11.38;73.33;102261.16;5032758;28;20483;-45
2020/12/21 04:09:42;;;;;;;2.45;1.42;;;;;;;11.33;73.71;102261.78;5033013;28;20466;-49
2020/12/21 04:12:08;;;;;;;10.32;3.17;;;;;;;11.43;73.33;102252.47;5032107;28;20534;-49
2020/12/21 04:14:33;;;;;;;2.05;1.80;;;;;;;11.46;73.28;102254.75;5032811;28;20026;-49
2020/12/21 04:16:59;;;;;;;4.45;2.38;;;;;;;11.58;73.10;102260.31;5032468;28;20041;-45
2020/12/21 04:19:24;;;;;;;3.38;2.95;;;;;;;11.44;73.35;102263.00;5032519;28;20056;-44
2020/12/21 04:21:50;;;;;;;7.25;3.97;;;;;;;11.48;73.43;102266.94;5032363;28;20041;-44
2020/12/21 04:24:15;;;;;;;4.07;3.13;;;;;;;11.35;73.52;102267.75;5032381;28;20036;-45
2020/12/21 04:26:40;;;;;;;4.47;3.25;;;;;;;11.23;73.76;102268.59;5032536;28;20044;-46
2020/12/21 04:29:08;;;;;;;3.83;2.72;;;;;;;11.22;73.69;102270.47;5031289;28;20040;-43
2020/12/21 04:31:33;;;;;;;5.43;2.95;;;;;;;11.23;73.55;102265.91;5032428;28;20095;-50
2020/12/21 04:33:58;;;;;;;6.03;3.83;;;;;;;11.34;73.29;102258.06;5031954;28;20053;-44
2020/12/21 04:36:24;;;;;;;5.45;2.97;;;;;;;11.34;72.76;102273.34;5032363;28;20076;-45
2020/12/21 04:38:53;;;;;;;12.35;2.90;;;;;;;11.18;73.38;102269.22;5032285;28;20038;-44
2020/12/21 04:41:19;;;;;;;5.90;3.65;;;;;;;11.22;73.50;102270.47;5031642;28;20116;-45
2020/12/21 04:43:45;;;;;;;3.80;2.35;;;;;;;11.36;72.62;102273.97;5031914;28;20563;-46
2020/12/21 04:46:10;;;;;;;3.90;3.03;;;;;;;11.28;72.46;102269.63;5032085;28;20126;-44
2020/12/21 04:48:41;;;;;;;2.50;2.13;;;;;;;11.19;72.78;102267.38;5031887;28;20440;-44
2020/12/21 04:51:08;;;;;;;11.80;1.90;;;;;;;11.05;73.27;102266.53;5031491;28;20112;-44
2020/12/21 04:53:36;;;;;;;2.25;1.92;;;;;;;10.94;73.20;102266.09;5032069;28;20037;-45
2020/12/21 04:56:02;;;;;;;3.97;1.77;;;;;;;11.09;73.21;102259.72;5031754;28;20037;-46
2020/12/21 04:58:27;;;;;;;2.15;1.55;;;;;;;11.09;73.06;102263.22;5031558;28;20045;-44
2020/12/21 05:00:53;;;;;;;5.75;2.13;;;;;;;11.04;73.43;102244.22;5031210;28;20033;-47
2020/12/21 05:03:18;;;;;;;2.15;1.08;;;;;;;11.12;73.13;102235.97;5031643;28;20033;-46
2020/12/21 05:05:44;;;;;;;3.35;1.85;;;;;;;11.13;73.44;102232.25;5031732;28;20084;-46
2020/12/21 05:08:21;;;;;;;1.38;1.23;;;;;;;11.16;73.18;102231.00;5031578;28;20136;-47
2020/12/21 05:10:57;;;;;;;3.10;1.98;;;;;;;11.19;73.35;102235.16;5031795;28;20037;-51
2020/12/21 05:13:24;;;;;;;2.35;1.77;;;;;;;11.21;73.17;102236.59;5031364;28;20068;-47
2020/12/21 05:15:51;;;;;;;2.60;1.25;;;;;;;11.16;73.42;102241.75;5031305;28;20091;-46
2020/12/21 05:18:16;;;;;;;9.95;2.88;;;;;;;11.18;73.18;102245.03;5031293;28;20037;-48
2020/12/21 05:20:42;;;;;;;1.70;1.10;;;;;;;11.22;72.89;102251.69;5031615;28;20048;-49
2020/12/21 05:23:17;;;;;;;6.28;4.20;;;;;;;11.08;72.92;102233.88;5030941;28;20038;-48
2020/12/21 05:25:43;;;;;;;10.90;7.18;;;;;;;11.07;73.05;102238.44;5031331;28;20041;-45
2020/12/21 05:28:11;;;;;;;11.60;8.98;;;;;;;10.98;73.04;102243.19;5029963;28;20108;-48
2020/12/21 05:30:50;;;;;;;11.00;9.90;;;;;;;10.81;73.55;102255.34;5031269;28;20582;-46
2020/12/21 05:33:15;;;;;;;15.50;8.07;;;;;;;10.71;74.10;102262.94;5030842;28;20030;-46
2020/12/21 05:35:41;;;;;;;14.57;8.00;;;;;;;10.67;74.01;102275.94;5031359;28;20053;-46
2020/12/21 05:38:06;;;;;;;14.52;9.13;;;;;;;10.75;73.60;102269.59;5031010;28;20063;-47
2020/12/21 05:40:32;;;;;;;6.93;5.68;;;;;;;10.90;73.33;102270.19;5031784;28;20045;-47
2020/12/21 05:42:57;;;;;;;10.80;6.15;;;;;;;10.89;73.19;102268.56;5035218;28;20034;-45
2020/12/21 05:45:23;;;;;;;8.20;6.28;;;;;;;10.79;73.63;102278.88;5031752;28;20045;-46
2020/12/21 05:47:49;;;;;;;9.82;7.45;;;;;;;10.76;73.41;102273.91;5034158;28;20033;-46
2020/12/21 05:50:20;;;;;;;13.88;6.32;;;;;;;10.71;73.62;102287.09;5035224;28;20448;-44
2020/12/21 05:52:51;;;;;;;;;;;;;;;10.75;73.77;102296.41;5035625;28;20037;-47
2020/12/21 05:55:17;;;;;;;9.93;7.63;;;;;;;10.73;73.55;102307.34;5032114;28;19944;-47
2020/12/21 05:57:42;;;;;;;9.73;6.88;;;;;;;10.77;73.74;102305.06;5035002;28;20072;-44
2020/12/21 06:00:10;;;;;;;8.93;8.10;;;;;;;10.87;73.11;102316.25;5035086;28;20502;-44
2020/12/21 06:02:36;;;;;;;9.73;6.07;;;;;;;10.94;72.58;102300.16;5035140;28;20109;-44
2020/12/21 06:05:09;;;;;;;5.70;4.90;;;;;;;10.93;72.54;102296.63;5034170;28;20128;-48
2020/12/21 06:07:36;;;;;;;4.97;3.30;;;;;;;10.92;72.60;102310.25;5035356;28;20030;-45
2020/12/21 06:10:05;;;;;;;16.27;4.72;;;;;;;10.68;73.07;102309.81;5035050;28;20037;-46
2020/12/21 06:12:36;;;;;;;6.40;4.20;;;;;;;10.59;73.81;102319.88;5034834;28;20104;-45
2020/12/21 06:15:08;;;;;;;6.75;4.85;;;;;;;10.59;73.51;102319.88;5034885;28;20025;-48
2020/12/21 06:17:35;;;;;;;6.38;5.15;;;;;;;10.59;73.85;102319.06;5035059;28;20510;-45
2020/12/21 06:20:09;;;;;;;8.75;6.22;;;;;;;10.58;73.91;102318.22;5034584;28;20124;-45
2020/12/21 06:22:35;;;;;;;10.07;4.63;;;;;;;10.59;73.53;102311.00;5034639;28;20037;-46
2020/12/21 06:25:03;;;;;;;8.60;4.78;;;;;;;10.52;73.68;102320.91;5033945;28;20033;-47
2020/12/21 06:27:37;;;;;;;7.85;4.80;;;;;;;10.58;73.55;102328.94;5034071;28;20049;-46
2020/12/21 06:30:03;;;;;;;5.75;4.10;;;;;;;10.74;72.79;102329.63;5034140;28;20041;-49
2020/12/21 06:32:33;;;;;;;4.35;3.08;;;;;;;10.86;72.62;102337.91;5034747;28;20384;-51
2020/12/21 06:35:00;;;;;;;6.90;5.03;;;;;;;10.83;73.01;102341.00;5034080;28;20053;-44
2020/12/21 06:37:26;;;;;;;17.73;6.28;;;;;;;10.79;72.76;102333.34;5033972;28;20084;-46
2020/12/21 06:40:04;;;;;;;8.15;4.43;;;;;;;10.76;72.69;102324.88;5034265;28;20430;-46
2020/12/21 06:42:30;;;;;;;4.50;3.47;;;;;;;10.63;72.91;102330.22;5027852;28;20035;-45
2020/12/21 06:44:55;;;;;;;5.03;3.10;;;;;;;10.50;73.20;102334.50;5034119;28;20037;-44
2020/12/21 06:47:23;;;;;;;7.90;4.88;;;;;;;10.60;73.00;102337.59;5034263;28;20037;-46
2020/12/21 06:49:49;;;;;;;7.18;5.85;;;;;;;10.62;72.92;102336.59;5034206;28;20132;-45
2020/12/21 06:52:14;;;;;;;6.05;5.45;;;;;;;10.60;73.13;102334.94;5033355;28;20125;-45
2020/12/21 06:54:40;;;;;;;4.80;4.28;;;;;;;10.84;73.18;102331.94;5034254;28;20124;-43
2020/12/21 06:57:05;;;;;;;21.25;9.27;;;;;;;10.71;73.12;102335.38;5033498;28;20037;-43
2020/12/21 06:59:32;;;;;;;51.55;27.67;;;;;;;10.79;73.65;102327.97;5033841;28;20770;-44
2020/12/21 07:01:57;;;;;;;21.73;13.15;;;;;;;10.95;72.73;102320.59;5034073;28;20041;-47
2020/12/21 07:04:30;;;;;;;16.80;5.80;;;;;;;10.74;72.92;102318.88;5033556;28;20052;-45
2020/12/21 07:07:06;;;;;;;13.63;6.35;;;;;;;10.69;72.89;102332.06;5031421;28;20476;-46
2020/12/21 07:09:37;;;;;;;7.63;3.92;;;;;;;10.72;72.89;102334.38;5033981;28;20030;-48
2020/12/21 07:12:07;;;;;;;14.15;4.30;;;;;;;10.75;72.73;102344.69;5033899;28;20037;-46
2020/12/21 07:14:37;;;;;;;14.55;10.63;;;;;;;10.75;72.59;102342.84;5033838;28;20050;-49
2020/12/21 07:17:11;;;;;;;15.60;12.20;;;;;;;10.74;72.46;102359.13;5032522;28;20037;-46
2020/12/21 07:19:44;;;;;;;11.07;7.50;;;;;;;10.73;72.73;102360.19;5031086;28;20044;-44
2020/12/21 07:22:13;;;;;;;9.00;7.65;;;;;;;10.70;72.13;102361.38;5033171;28;20487;-45
2020/12/21 07:24:40;;;;;;;15.75;10.10;;;;;;;10.51;72.54;102368.31;5033117;28;20379;-45
2020/12/21 07:27:06;;;;;;;33.08;19.70;;;;;;;10.55;72.47;102366.91;5032322;28;20030;-44
2020/12/21 07:29:37;;;;;;;39.92;28.58;;;;;;;10.54;72.70;102367.09;5032673;28;20102;-45
2020/12/21 07:32:03;;;;;;;32.97;24.73;;;;;;;10.37;72.77;102355.88;5032883;28;20039;-47
2020/12/21 07:34:29;;;;;;;99.93;75.35;;;;;;;10.49;72.63;102354.28;5031195;28;20072;-45
2020/12/21 07:36:56;;;;;;;94.57;69.63;;;;;;;10.40;72.71;102350.13;5032617;28;20081;-46
2020/12/21 07:39:21;;;;;;;62.72;46.95;;;;;;;10.37;72.97;102358.56;5032625;28;20404;-44
2020/12/21 07:41:51;;;;;;;46.90;38.45;;;;;;;10.58;72.81;102357.63;5033444;28;20242;-45
2020/12/21 07:44:44;;;;;;;38.95;29.23;;;;;;;10.62;72.47;102355.38;5030116;28;20057;-49
2020/12/21 07:47:22;;;;;;;22.50;14.20;;;;;;;10.74;72.18;102348.41;5032175;28;20091;-44
2020/12/21 07:49:48;;;;;;;17.83;13.75;;;;;;;10.67;72.22;102358.28;5033321;28;20065;-46
2020/12/21 07:52:14;;;;;;;17.88;15.90;;;;;;;10.58;73.04;102353.09;5029925;28;20506;-46
2020/12/21 07:54:45;;;;;;;20.35;15.93;;;;;;;10.62;72.80;102355.38;5032756;28;20037;-44
2020/12/21 07:57:13;;;;;;;29.27;17.38;;;;;;;10.64;73.03;102350.63;5031934;28;20033;-46
2020/12/21 07:59:39;;;;;;;26.13;21.70;;;;;;;10.57;72.98;102355.97;5032907;28;20116;-46
2020/12/21 08:02:07;;;;;;;45.20;23.88;;;;;;;10.60;72.69;102366.28;5032816;28;20163;-44
2020/12/21 08:04:33;;;;;;;27.60;24.08;;;;;;;10.60;72.49;102377.84;5031888;28;20033;-47
2020/12/21 08:07:07;;;;;;;23.95;20.10;;;;;;;10.54;72.82;102389.38;5032895;28;20040;-44
2020/12/21 08:09:32;;;;;;;26.63;20.25;;;;;;;10.52;73.10;102396.81;5032587;28;20420;-46
2020/12/21 08:11:59;;;;;;;34.72;19.67;;;;;;;10.57;72.29;102410.44;5032605;28;20037;-46
2020/12/21 08:14:25;;;;;;;30.48;25.42;;;;;;;10.58;72.69;102414.78;5032573;28;20483;-45
2020/12/21 08:16:50;;;;;;;69.05;38.28;;;;;;;10.66;72.24;102421.84;5032584;28;20065;-49
2020/12/21 08:19:22;;;;;;;36.75;29.05;;;;;;;10.69;72.53;102420.59;5032180;28;20042;-45
2020/12/21 08:21:49;;;;;;;33.22;29.80;;;;;;;10.65;72.80;102430.09;5032424;28;20080;-47
2020/12/21 08:24:14;;;;;;;46.47;36.30;;;;;;;10.68;72.54;102432.38;5032551;28;20091;-45
2020/12/21 08:26:40;;;;;;;51.88;34.58;;;;;;;10.73;72.43;102436.13;5032702;28;20037;-45
2020/12/21 08:29:06;;;;;;;52.20;42.22;;;;;;;10.66;72.54;102446.00;5032368;28;20025;-44
2020/12/21 08:31:31;;;;;;;74.25;66.70;;;;;;;10.62;73.05;102443.88;5032149;28;20041;-49
2020/12/21 08:34:05;;;;;;;78.15;67.45;;;;;;;10.60;72.98;102436.84;5032026;28;20052;-44
2020/12/21 08:36:36;;;;;;;79.32;66.72;;;;;;;10.64;72.79;102442.69;5031939;28;20068;-47
2020/12/21 08:39:14;;;;;;;100.03;76.37;;;;;;;10.63;73.21;102446.38;5032189;28;20052;-48
2020/12/21 08:41:55;;;;;;;89.50;79.78;;;;;;;10.74;72.85;102453.84;5032227;28;20444;-49
2020/12/21 08:44:23;;;;;;;92.82;71.70;;;;;;;10.81;72.75;102453.91;5024641;28;20043;-45
2020/12/21 08:46:59;;;;;;;81.70;71.65;;;;;;;10.88;73.01;102453.94;5031587;28;20115;-48
2020/12/21 08:49:27;;;;;;;76.80;68.45;;;;;;;10.93;72.84;102454.97;5032119;28;20088;-46
2020/12/21 08:51:58;;;;;;;80.10;71.43;;;;;;;10.95;72.66;102458.28;5031971;28;20068;-41
2020/12/21 08:54:23;;;;;;;94.15;83.93;;;;;;;10.98;72.51;102460.59;5023477;28;20540;-42
2020/12/21 08:56:51;;;;;;;107.43;96.53;;;;;;;10.92;73.11;102461.41;5026692;28;20036;-43
2020/12/21 08:59:17;;;;;;;85.10;75.88;;;;;;;10.96;72.91;102457.28;5025511;28;20045;-46
2020/12/21 09:01:43;;;;;;;68.82;61.28;;;;;;;11.10;72.78;102449.28;5026524;28;20045;-47
2020/12/21 09:04:09;;;;;;;50.42;45.13;;;;;;;11.11;73.06;102451.75;5025669;28;20061;-45
2020/12/21 09:06:35;;;;;;;84.85;66.50;;;;;;;11.16;72.91;102451.16;5026857;28;20744;-45
2020/12/21 09:09:00;;;;;;;88.90;77.45;;;;;;;11.23;72.36;102452.00;5025260;28;20048;-48
2020/12/21 09:11:26;;;;;;;123.95;90.50;;;;;;;11.20;72.68;102454.25;5026584;28;20042;-44
2020/12/21 09:13:52;;;;;;;109.35;82.60;;;;;;;11.16;72.62;102456.53;5025183;28;20045;-48
2020/12/21 09:16:24;;;;;;;96.22;71.50;;;;;;;11.15;72.90;102463.75;5031302;28;20037;-45
2020/12/21 09:18:51;;;;;;;78.18;56.13;;;;;;;11.17;72.75;102455.50;5031015;28;20033;-44
2020/12/21 09:21:18;;;;;;;54.70;47.92;;;;;;;11.17;73.07;102450.13;5031376;28;20067;-46
2020/12/21 09:23:44;;;;;;;56.05;49.85;;;;;;;11.20;73.23;102446.19;5029061;28;20411;-45
2020/12/21 09:26:09;;;;;;;65.90;48.42;;;;;;;11.29;72.99;102440.47;5027703;28;20030;-44
2020/12/21 09:28:35;;;;;;;51.88;45.28;;;;;;;11.21;73.04;102442.50;5028795;28;20038;-44
2020/12/21 09:31:00;;;;;;;62.65;49.95;;;;;;;11.17;73.76;102442.06;5026135;28;20026;-46
2020/12/21 09:33:25;;;;;;;52.72;46.20;;;;;;;11.24;73.38;102436.72;5027368;28;20128;-45
2020/12/21 09:35:52;;;;;;;54.05;48.42;;;;;;;11.30;73.40;102442.09;5026383;28;20049;-45
2020/12/21 09:38:17;;;;;;;53.88;48.75;;;;;;;11.32;73.43;102440.03;5023300;28;20041;-48
2020/12/21 09:40:43;;;;;;;54.95;49.40;;;;;;;11.36;73.66;102440.47;5027429;28;20065;-47
2020/12/21 09:43:08;;;;;;;53.05;47.42;;;;;;;11.56;73.95;102453.94;5026435;28;20030;-48
2020/12/21 09:45:33;;;;;;;61.20;53.28;;;;;;;11.88;74.54;102464.94;5029288;28;20037;-49
2020/12/21 09:47:59;;;;;;;51.75;45.63;;;;;;;13.39;70.90;102449.69;5029788;28;20051;-52
2020/12/21 09:50:24;;;;;;;44.20;39.75;;;;;;;13.74;69.02;102454.63;5024778;28;20034;-60
2020/12/21 09:52:50;;;;;;;49.97;28.02;;;;;;;14.05;68.29;102461.03;5031314;28;20084;-59
2020/12/21 09:55:15;;;;;;;21.48;16.75;;;;;;;14.15;68.06;102456.78;5025527;28;20171;-58
2020/12/21 09:57:41;;;;;;;23.80;21.60;;;;;;;14.24;68.38;102456.53;5030968;28;20029;-59
2020/12/21 10:00:07;;;;;;;17.95;16.23;;;;;;;14.44;68.12;102453.63;5030950;28;20027;-58
2020/12/21 10:02:33;;;;;;;28.08;12.10;;;;;;;14.56;67.63;102449.13;5031180;28;20044;-59
2020/12/21 10:04:58;;;;;;;14.50;7.60;;;;;;;14.65;67.89;102441.59;5030677;28;20029;-58
2020/12/21 10:07:24;;;;;;;9.32;8.23;;;;;;;14.81;67.89;102440.16;5030849;28;20034;-60
2020/12/21 10:09:49;;;;;;;17.02;5.72;;;;;;;15.04;67.45;102434.88;5031301;28;20033;-60
2020/12/21 10:12:15;;;;;;;13.95;6.95;;;;;;;15.11;67.02;102429.38;5031230;28;20120;-59
2020/12/21 10:14:42;;;;;;;15.00;8.07;;;;;;;15.19;67.26;102431.75;5018953;28;20025;-60
2020/12/21 10:17:08;;;;;;;19.40;11.10;;;;;;;15.26;66.53;102415.47;5029774;28;20041;-62
2020/12/21 10:19:34;;;;;;;15.63;10.95;;;;;;;15.35;65.89;102413.25;5029507;28;20037;-62
2020/12/21 10:21:59;;;;;;;10.55;7.88;;;;;;;15.69;64.61;102417.09;5030865;28;20406;-62
2020/12/21 10:24:25;;;;;;;5.15;4.20;;;;;;;15.73;63.46;102414.75;5031075;28;20387;-60
2020/12/21 10:26:50;;;;;;;10.40;9.35;;;;;;;15.76;64.21;102414.28;5030714;28;20084;-63
2020/12/21 10:29:16;;;;;;;9.68;5.97;;;;;;;16.00;63.98;102402.44;5027708;28;20033;-61
2020/12/21 10:31:44;;;;;;;53.97;49.22;;;;;;;16.35;62.78;102396.16;5024678;28;20033;-63
2020/12/21 10:34:09;;;;;;;5.45;4.88;;;;;;;16.68;60.75;102393.88;5030220;28;20395;-62
2020/12/21 10:36:35;;;;;;;4.50;2.72;;;;;;;16.49;61.54;102396.72;5030501;28;20056;-62
2020/12/21 10:39:01;;;;;;;24.60;4.03;;;;;;;16.65;61.08;102403.28;5031466;28;20033;-63
2020/12/21 10:41:31;;;;;;;10.32;2.53;;;;;;;16.77;59.52;102412.19;5016970;28;20033;-63
2020/12/21 10:43:56;;;;;;;6.57;3.83;;;;;;;16.26;60.98;102413.84;5030959;28;20037;-62
2020/12/21 10:46:21;;;;;;;10.07;3.05;;;;;;;16.59;60.51;102420.50;5029905;28;20042;-62
2020/12/21 10:48:48;;;;;;;5.57;3.67;;;;;;;16.61;60.56;102405.66;5031091;28;20060;-62
2020/12/21 10:51:13;;;;;;;4.50;2.10;;;;;;;17.01;60.31;102404.84;5030612;28;20037;-62
2020/12/21 10:53:39;;;;;;;8.90;3.15;;;;;;;17.12;58.92;102399.63;5030853;28;20614;-62
2020/12/21 10:56:04;;;;;;;4.30;2.70;;;;;;;17.27;58.54;102401.78;5030626;28;20080;-63
2020/12/21 10:58:31;;;;;;;5.32;2.63;;;;;;;17.47;57.93;102398.59;5030667;28;20029;-62
2020/12/21 11:00:57;;;;;;;1.98;1.35;;;;;;;18.00;55.99;102378.28;5029050;28;20052;-62
2020/12/21 11:03:22;;;;;;;6.43;2.47;;;;;;;18.22;55.38;102383.75;5030468;28;20029;-62
2020/12/21 11:05:48;;;;;;;6.25;1.70;;;;;;;18.39;55.11;102378.28;5030564;28;20487;-60
2020/12/21 11:08:13;;;;;;;8.73;1.98;;;;;;;18.26;55.16;102375.94;5030806;28;20415;-61
2020/12/21 11:10:38;;;;;;;11.88;3.03;;;;;;;18.72;53.86;102376.50;5030098;28;20655;-60
2020/12/21 11:13:04;;;;;;;4.13;1.55;;;;;;;18.79;52.61;102379.81;5028109;28;20455;-60
2020/12/21 11:15:29;;;;;;;2.83;1.50;;;;;;;18.89;52.85;102373.72;5025785;28;20041;-59